メインページ
METAR-TAF:

METAR-TAF

空港 :

ブラジリア, ブラジリア連邦直轄区, ブラジル

プレジデント・ジュセリノ・クビシェッキ国際空港

緯度: 15-52S, 経度: 047-56W, 海抜: 1061m

現時点の気象観測

当レポートは29分前の00:13(UTC)に作成
南/南東の風 10kt
気温 18°C
湿度 100%
気圧 1014 hPa
視程: 2000m
高度500ftの雲は散在している
高度1000ftの雲は散在している
高度3000ftの雲は散在している, 塔状積雲.
高度10000ftの曇り
激しいにわか雨

METAR: SBBR 120013Z 15010KT 2000 R29L/1500 R29R/P2000 R11R/P2000 R11L/ P2000 +SHRA SCT005 SCT010 SCT030TCU OVC100 18/18 Q1014

時間: 22:42 (00:42 UTC)

予報

当レポートは2時間42分前の22:00(UTC)に作成
予報は12日の 00時(UTC)から 12日の 24時(UTC)まで有効
北/北西の風 8kt
視程10km以上
高度1600ftの千切れ雲あり
確率 30%
12日の 00時(UTC)から 12日の 02時(UTC)まで
視程: 7000m
高度1200ftの千切れ雲あり
高度3500ftの雲はほとんどない, 積乱雲.
激しい雷雨, 雨
確率 30%
12日の 08時(UTC)から 12日の 12時(UTC)まで
高度800ftの千切れ雲あり
12日の 14時(UTC)から 12日の 15時(UTC)まで徐々に
高度2000ftの千切れ雲あり
12日の 16時(UTC)から 12日の 17時(UTC)まで徐々に
高度2000ftの千切れ雲あり
高度3500ftの雲はほとんどない, 塔状積雲.
確率 30% :
12日の 19時(UTC)から 12日の 22時(UTC)まで一時的に
高度2000ftの雲は散在している
高度3500ftの雲はほとんどない, 積乱雲.
激しい雷雨, 雨

TAF: SBBR 112200Z 1200/1224 33008KT 9999 BKN016 TN19/1207Z TX25/1216Z PROB30 1200/1202 7000 TSRA BKN012 FEW035CB PROB30 1208/1212 BKN008 BECMG 1214/1215 BKN020 BECMG 1216/1217 23007K T BKN020 FEW035TCU PROB30 TEMPO 1219/1222 TSRA SCT020 FEW035CB RMK PDA

4,000以上の空港の気象観測と天気予報(METAR報とTAF報)

利用可能な観測所は地図上に黄色い丸と赤い丸で示す。

丸の上にカーソルを重ねると観測所名を参照できる。

次にクリックすると気象観測と天気予報を参照できる。

マップの切り替え:黒色「×」印の緑ボタンをクリックして拡大、「-」印の緑ボタンをクリックして縮小、緑色の三角印をクリックして隣りの地図に切り替え


METAR-TAF: